createdAt,value
2022-12-08T00:01:09.048Z,0.50
2022-12-08T00:06:44.229Z,0.40
2022-12-08T00:11:55.484Z,0.40
2022-12-08T00:17:01.760Z,0.40
2022-12-08T00:22:08.238Z,0.40
2022-12-08T00:27:15.351Z,0.40
2022-12-08T00:32:20.800Z,0.50
2022-12-08T00:37:26.200Z,0.50
2022-12-08T00:42:31.625Z,0.40
2022-12-08T00:47:36.953Z,0.40
2022-12-08T00:52:43.401Z,0.40
2022-12-08T00:57:50.194Z,0.40
2022-12-08T01:02:55.535Z,0.40
2022-12-08T01:08:01.000Z,0.40
2022-12-08T01:13:06.779Z,0.40
2022-12-08T01:18:12.116Z,0.40
2022-12-08T01:23:18.510Z,0.30
2022-12-08T01:28:23.963Z,0.40
2022-12-08T01:33:29.526Z,0.50
2022-12-08T01:38:35.083Z,0.60
2022-12-08T01:43:59.897Z,0.60
2022-12-08T01:49:23.179Z,0.60
2022-12-08T01:54:31.462Z,0.70
2022-12-08T01:59:39.801Z,0.70
2022-12-08T02:04:45.531Z,0.70
2022-12-08T02:09:51.746Z,0.80
2022-12-08T02:15:03.401Z,0.80
2022-12-08T02:20:18.990Z,0.80
2022-12-08T02:25:33.393Z,0.90
2022-12-08T02:30:53.388Z,1.00
2022-12-08T02:36:04.330Z,1.00
2022-12-08T02:41:28.742Z,1.00
2022-12-08T02:46:42.870Z,1.00
2022-12-08T02:51:48.680Z,1.00
2022-12-08T02:57:08.938Z,1.10
2022-12-08T03:02:33.737Z,1.10
2022-12-08T03:07:47.976Z,1.00
2022-12-08T03:12:59.135Z,1.00
2022-12-08T03:18:05.692Z,1.10
2022-12-08T03:23:14.631Z,1.00
2022-12-08T03:28:20.116Z,1.00
2022-12-08T03:33:28.549Z,1.00
2022-12-08T03:38:41.961Z,0.90
2022-12-08T03:43:52.520Z,0.90
2022-12-08T03:48:58.465Z,0.90
2022-12-08T03:54:04.313Z,0.90
2022-12-08T03:59:10.190Z,0.80
2022-12-08T04:04:15.854Z,0.80
2022-12-08T04:09:21.425Z,0.80
2022-12-08T04:14:27.066Z,0.80
2022-12-08T04:19:33.985Z,0.80
2022-12-08T04:24:39.476Z,0.70
2022-12-08T04:29:44.915Z,0.70
2022-12-08T04:34:50.439Z,0.70
2022-12-08T04:39:55.902Z,0.70
2022-12-08T04:45:01.318Z,0.70
2022-12-08T04:50:08.533Z,0.60
2022-12-08T04:55:14.211Z,0.60
2022-12-08T05:00:19.916Z,0.60
2022-12-08T05:05:25.361Z,0.60
2022-12-08T05:10:30.780Z,0.50
2022-12-08T05:15:36.288Z,0.50
2022-12-08T05:20:41.748Z,0.50
2022-12-08T05:25:48.592Z,0.40
2022-12-08T05:31:00.321Z,0.40
2022-12-08T05:36:01.001Z,0.40
2022-12-08T05:41:09.031Z,0.30
2022-12-08T05:46:18.490Z,0.20
2022-12-08T05:51:31.507Z,0.10
2022-12-08T05:56:44.403Z,0.00
2022-12-08T06:01:57.121Z,-0.10
2022-12-08T06:07:27.510Z,-0.20
2022-12-08T06:12:55.615Z,-0.30
2022-12-08T06:18:36.008Z,-0.40
2022-12-08T06:23:56.617Z,-0.40
2022-12-08T06:29:04.826Z,-0.40
2022-12-08T06:34:16.638Z,-0.40
2022-12-08T06:39:21.991Z,-0.40
2022-12-08T06:44:27.330Z,-0.40
2022-12-08T06:49:32.730Z,-0.50
2022-12-08T06:54:38.039Z,-0.50
2022-12-08T06:59:44.347Z,-0.50
2022-12-08T07:04:49.739Z,-0.50
2022-12-08T07:09:56.051Z,-0.50
2022-12-08T07:15:02.841Z,-0.40
2022-12-08T07:20:12.622Z,-0.40
2022-12-08T07:25:18.086Z,-0.40
2022-12-08T07:30:28.518Z,-0.40
2022-12-08T07:35:36.394Z,-0.40
2022-12-08T07:40:44.594Z,-0.50
2022-12-08T07:45:50.509Z,-0.50
2022-12-08T07:51:03.972Z,-0.50
2022-12-08T07:56:11.537Z,-0.50
2022-12-08T08:01:22.448Z,-0.50
2022-12-08T08:06:28.495Z,-0.50
2022-12-08T08:11:33.872Z,-0.60
2022-12-08T08:16:40.978Z,-0.50
2022-12-08T08:21:46.677Z,-0.50
2022-12-08T08:26:53.692Z,-0.50
2022-12-08T08:32:01.284Z,-0.40
2022-12-08T08:37:06.671Z,-0.30
2022-12-08T08:42:12.186Z,-0.20
2022-12-08T08:47:17.625Z,-0.10
2022-12-08T08:52:24.078Z,0.00
2022-12-08T08:57:29.465Z,0.00
2022-12-08T09:02:35.294Z,0.10
2022-12-08T09:07:41.737Z,0.10
2022-12-08T09:12:47.119Z,0.20
2022-12-08T09:17:52.549Z,0.30
2022-12-08T09:22:57.979Z,0.40
2022-12-08T09:28:03.460Z,0.50
2022-12-08T09:33:08.973Z,0.60
2022-12-08T09:38:14.813Z,0.60
2022-12-08T09:43:39.296Z,0.60
2022-12-08T09:48:49.052Z,0.60
2022-12-08T09:54:24.633Z,0.70
2022-12-08T09:59:35.656Z,0.80
2022-12-08T10:04:43.593Z,0.80
2022-12-08T10:09:52.187Z,0.80
2022-12-08T10:15:19.768Z,0.80
2022-12-08T10:20:28.323Z,0.80
2022-12-08T10:26:06.633Z,0.80
2022-12-08T10:31:20.471Z,0.80
2022-12-08T10:36:47.282Z,0.70
2022-12-08T10:41:53.290Z,0.70
2022-12-08T10:47:00.205Z,0.70
2022-12-08T10:52:26.212Z,0.70
2022-12-08T10:57:31.603Z,0.70
2022-12-08T11:02:37.042Z,0.80
2022-12-08T11:07:54.520Z,0.80
2022-12-08T11:13:03.163Z,0.80
2022-12-08T11:18:10.967Z,0.80
2022-12-08T11:23:24.600Z,0.90
2022-12-08T11:28:30.478Z,0.80
2022-12-08T11:33:36.392Z,0.80
2022-12-08T11:38:44.637Z,0.80
2022-12-08T11:43:55.787Z,0.90
2022-12-08T11:49:06.664Z,1.10
2022-12-08T11:54:22.666Z,1.10
2022-12-08T11:59:39.747Z,1.10
2022-12-08T12:04:56.451Z,1.20
2022-12-08T12:10:22.423Z,1.20
2022-12-08T12:15:39.611Z,1.30
2022-12-08T12:21:02.664Z,1.30
2022-12-08T12:26:10.624Z,1.30
2022-12-08T12:31:19.228Z,1.40
2022-12-08T12:36:25.853Z,1.50
2022-12-08T12:41:34.116Z,1.50
2022-12-08T12:46:45.379Z,1.50
2022-12-08T12:51:53.620Z,1.50
2022-12-08T12:57:07.620Z,1.50
2022-12-08T13:02:28.450Z,1.60
2022-12-08T13:07:37.215Z,1.60
2022-12-08T13:12:45.653Z,1.60
2022-12-08T13:17:51.157Z,1.70
2022-12-08T13:23:05.428Z,1.70
2022-12-08T13:28:22.462Z,1.70
2022-12-08T13:33:31.203Z,1.70
2022-12-08T13:38:39.891Z,1.70
2022-12-08T13:44:56.721Z,1.80
2022-12-08T13:55:25.873Z,1.80
2022-12-08T13:59:47.996Z,1.80
2022-12-08T14:10:07.010Z,1.80
2022-12-08T14:15:22.780Z,1.80
2022-12-08T14:21:19.053Z,1.80
2022-12-08T14:25:49.965Z,1.80
2022-12-08T14:30:57.322Z,1.80
2022-12-08T14:36:36.373Z,1.80
2022-12-08T14:41:41.759Z,1.70
2022-12-08T14:47:05.788Z,1.70
2022-12-08T14:52:29.836Z,1.70
2022-12-08T14:57:36.481Z,1.70
2022-12-08T15:02:45.025Z,1.70
2022-12-08T15:19:41.397Z,1.70
2022-12-08T15:30:32.622Z,1.70
2022-12-08T15:35:50.257Z,1.70
2022-12-08T15:41:02.536Z,1.80
2022-12-08T16:15:39.193Z,1.90
2022-12-08T16:19:35.561Z,1.90
2022-12-08T16:24:41.116Z,1.90
2022-12-08T16:29:48.085Z,1.90
2022-12-08T16:34:55.663Z,1.80
2022-12-08T16:40:02.129Z,1.80
2022-12-08T16:45:16.026Z,1.80
2022-12-08T16:50:43.452Z,1.90
2022-12-08T16:55:49.671Z,1.90
2022-12-08T17:01:18.431Z,1.90
2022-12-08T17:06:32.404Z,1.90
2022-12-08T17:12:09.861Z,1.90
2022-12-08T17:17:17.949Z,1.90
2022-12-08T17:22:26.402Z,2.00
2022-12-08T17:28:10.113Z,1.90
2022-12-08T17:33:38.106Z,2.00
2022-12-08T17:38:54.548Z,2.00
2022-12-08T17:44:13.408Z,2.00
2022-12-08T17:49:27.977Z,2.00
2022-12-08T17:54:36.071Z,2.00
2022-12-08T17:59:41.674Z,2.00
2022-12-08T18:04:47.297Z,2.10
2022-12-08T18:09:54.621Z,2.10
2022-12-08T18:15:00.529Z,2.10
2022-12-08T18:20:11.810Z,2.10
2022-12-08T18:25:17.718Z,2.10
2022-12-08T18:30:24.928Z,2.20
2022-12-08T18:35:31.576Z,2.20
2022-12-08T18:40:42.167Z,2.20
2022-12-08T18:45:48.635Z,2.10
2022-12-08T18:50:55.216Z,2.10
2022-12-08T18:56:00.798Z,2.20
2022-12-08T19:01:06.437Z,2.10
2022-12-08T19:06:11.987Z,2.20
2022-12-08T19:11:22.873Z,2.20
2022-12-08T19:16:28.356Z,2.30
2022-12-08T19:21:34.553Z,2.30
2022-12-08T19:26:43.612Z,2.30
2022-12-08T19:32:05.399Z,2.30
2022-12-08T19:37:15.026Z,2.30
2022-12-08T19:42:39.073Z,2.30
2022-12-08T19:47:46.086Z,2.20
2022-12-08T19:52:51.583Z,2.20
2022-12-08T19:58:01.287Z,2.10
2022-12-08T20:03:19.945Z,1.90
2022-12-08T20:08:28.821Z,1.80
2022-12-08T20:13:48.059Z,1.70
2022-12-08T20:18:53.872Z,1.60
2022-12-08T20:23:59.397Z,1.50
2022-12-08T20:29:06.492Z,1.50
2022-12-08T20:34:19.934Z,1.50
2022-12-08T20:39:34.644Z,1.50
2022-12-08T20:44:42.142Z,1.50
2022-12-08T20:49:50.136Z,1.40
2022-12-08T20:54:57.704Z,1.40
2022-12-08T21:00:05.994Z,1.30
2022-12-08T21:05:19.059Z,1.30
2022-12-08T21:10:24.389Z,1.20
2022-12-08T21:15:32.700Z,1.20
2022-12-08T21:20:41.674Z,1.20
2022-12-08T21:25:51.717Z,1.20
2022-12-08T21:30:59.528Z,1.20
2022-12-08T21:36:25.080Z,1.10
2022-12-08T21:41:48.679Z,1.10
2022-12-08T21:46:55.159Z,1.20
2022-12-08T21:52:00.994Z,1.10
2022-12-08T21:57:07.441Z,1.10
2022-12-08T22:02:21.973Z,1.10
2022-12-08T22:07:23.822Z,1.10
2022-12-08T22:12:29.212Z,1.10
2022-12-08T22:17:40.396Z,1.00
2022-12-08T22:22:46.945Z,1.00
2022-12-08T22:27:52.430Z,1.00
2022-12-08T22:32:58.214Z,1.10
2022-12-08T22:38:13.761Z,1.00
2022-12-08T22:43:20.127Z,1.00
2022-12-08T22:48:26.551Z,1.10
2022-12-08T22:53:32.073Z,1.10
2022-12-08T22:58:39.125Z,1.10
2022-12-08T23:03:45.063Z,1.10
2022-12-08T23:08:51.211Z,1.20
2022-12-08T23:14:00.258Z,1.20
2022-12-08T23:19:05.887Z,1.10
2022-12-08T23:24:10.994Z,1.20
2022-12-08T23:30:10.674Z,1.10
2022-12-08T23:35:16.682Z,1.20
2022-12-08T23:40:22.474Z,1.20
2022-12-08T23:45:28.219Z,1.20
2022-12-08T23:50:35.550Z,1.20
2022-12-08T23:55:41.011Z,1.20
